createdAt,value
2023-02-13T00:00:09.371Z,99.90
2023-02-13T00:04:11.456Z,99.90
2023-02-13T00:08:13.170Z,99.90
2023-02-13T00:12:14.839Z,99.90
2023-02-13T00:16:16.606Z,99.90
2023-02-13T00:20:18.485Z,99.90
2023-02-13T00:24:20.310Z,99.90
2023-02-13T00:28:22.068Z,99.90
2023-02-13T00:32:23.813Z,99.90
2023-02-13T00:36:25.523Z,99.90
2023-02-13T00:40:27.211Z,99.90
2023-02-13T00:44:28.891Z,99.90
2023-02-13T00:48:32.802Z,99.90
2023-02-13T00:52:34.547Z,99.90
2023-02-13T00:56:36.223Z,99.90
2023-02-13T01:00:38.711Z,99.90
2023-02-13T01:04:40.427Z,99.90
2023-02-13T01:08:42.196Z,99.90
2023-02-13T01:12:43.911Z,99.90
2023-02-13T01:16:45.633Z,99.90
2023-02-13T01:20:57.757Z,99.90
2023-02-13T01:24:59.734Z,99.90
2023-02-13T01:29:01.751Z,99.90
2023-02-13T01:33:03.719Z,99.90
2023-02-13T01:37:05.466Z,99.90
2023-02-13T01:41:08.288Z,99.90
2023-02-13T01:45:30.422Z,99.90
2023-02-13T01:49:32.648Z,99.90
2023-02-13T01:53:42.912Z,99.90
2023-02-13T01:57:51.017Z,99.90
2023-02-13T02:01:54.039Z,99.90
2023-02-13T02:05:58.342Z,99.90
2023-02-13T02:10:03.936Z,99.90
2023-02-13T02:14:06.008Z,99.90
2023-02-13T02:18:22.047Z,99.90
2023-02-13T02:22:35.663Z,99.90
2023-02-13T02:26:55.367Z,99.90
2023-02-13T02:31:29.601Z,99.90
2023-02-13T02:35:52.423Z,99.90
2023-02-13T02:40:03.429Z,99.90
2023-02-13T02:44:42.446Z,99.90
2023-02-13T02:49:07.823Z,99.90
2023-02-13T02:53:27.916Z,99.90
2023-02-13T02:57:51.296Z,99.90
2023-02-13T03:02:13.481Z,99.90
2023-02-13T03:06:21.367Z,99.90
2023-02-13T03:10:49.932Z,99.90
2023-02-13T03:14:51.693Z,99.90
2023-02-13T03:19:16.462Z,99.90
2023-02-13T03:23:33.900Z,99.90
2023-02-13T03:28:26.512Z,99.90
2023-02-13T03:32:34.030Z,99.90
2023-02-13T03:37:18.297Z,99.90
2023-02-13T03:41:30.153Z,99.90
2023-02-13T03:45:57.251Z,99.90
2023-02-13T03:50:08.950Z,99.90
2023-02-13T03:54:43.834Z,99.90
2023-02-13T03:59:09.169Z,99.90
2023-02-13T04:03:28.794Z,99.90
2023-02-13T04:07:30.742Z,99.90
2023-02-13T04:11:42.363Z,99.90
2023-02-13T04:15:51.091Z,99.90
2023-02-13T04:19:53.274Z,99.90
2023-02-13T04:23:55.003Z,99.90
2023-02-13T04:27:56.677Z,99.90
2023-02-13T04:31:58.395Z,99.90
2023-02-13T04:36:00.117Z,99.90
2023-02-13T04:40:01.819Z,99.90
2023-02-13T04:44:03.694Z,99.90
2023-02-13T04:48:05.389Z,99.90
2023-02-13T04:52:07.080Z,99.90
2023-02-13T04:56:08.851Z,99.90
2023-02-13T05:00:11.801Z,99.90
2023-02-13T05:04:16.203Z,99.90
2023-02-13T05:08:18.045Z,99.90
2023-02-13T05:12:19.812Z,99.90
2023-02-13T05:16:21.595Z,99.90
2023-02-13T05:20:23.704Z,99.90
2023-02-13T05:24:25.635Z,99.90
2023-02-13T05:28:46.493Z,99.90
2023-02-13T05:32:50.703Z,99.90
2023-02-13T05:36:52.660Z,99.90
2023-02-13T05:40:54.412Z,99.90
2023-02-13T05:44:56.153Z,99.90
2023-02-13T05:48:57.848Z,99.90
2023-02-13T05:52:59.510Z,99.90
2023-02-13T05:57:01.209Z,99.90
2023-02-13T06:01:02.960Z,99.90
2023-02-13T06:05:04.961Z,99.90
2023-02-13T06:09:06.677Z,99.90
2023-02-13T06:13:08.323Z,99.90
2023-02-13T06:17:09.973Z,99.90
2023-02-13T06:21:11.668Z,99.90
2023-02-13T06:25:13.482Z,99.90
2023-02-13T06:29:15.182Z,99.90
2023-02-13T06:33:16.867Z,99.90
2023-02-13T06:37:18.502Z,99.90
2023-02-13T06:41:20.311Z,99.90
2023-02-13T06:45:22.103Z,99.90
2023-02-13T06:49:23.892Z,99.90
2023-02-13T06:53:25.729Z,99.90
2023-02-13T06:57:27.440Z,99.90
2023-02-13T07:01:29.158Z,99.90
2023-02-13T07:05:31.606Z,99.90
2023-02-13T07:09:33.309Z,99.90
2023-02-13T07:13:35.012Z,99.90
2023-02-13T07:17:36.734Z,99.90
2023-02-13T07:21:38.448Z,99.90
2023-02-13T07:25:40.134Z,99.90
2023-02-13T07:29:41.814Z,99.90
2023-02-13T07:33:43.616Z,99.90
2023-02-13T07:37:45.375Z,99.90
2023-02-13T07:41:47.141Z,99.90
2023-02-13T07:45:48.789Z,99.90
2023-02-13T07:49:50.544Z,99.90
2023-02-13T07:53:52.974Z,99.90
2023-02-13T07:57:55.075Z,99.90
2023-02-13T08:01:56.878Z,99.90
2023-02-13T08:05:58.923Z,99.90
2023-02-13T08:10:19.416Z,99.90
2023-02-13T08:14:26.050Z,99.90
2023-02-13T08:18:27.747Z,99.90
2023-02-13T08:22:29.460Z,99.90
2023-02-13T08:26:32.320Z,99.90
2023-02-13T08:30:34.012Z,99.90
2023-02-13T08:34:35.749Z,99.90
2023-02-13T08:38:37.497Z,99.90
2023-02-13T08:42:39.336Z,99.90
2023-02-13T08:46:41.007Z,99.90
2023-02-13T08:50:42.698Z,99.90
2023-02-13T08:54:44.430Z,99.90
2023-02-13T08:58:49.574Z,99.90
2023-02-13T09:02:51.389Z,99.90
2023-02-13T09:06:53.207Z,99.90
2023-02-13T09:11:03.839Z,99.90
2023-02-13T09:15:06.112Z,99.90
2023-02-13T09:19:07.830Z,99.90
2023-02-13T09:23:09.601Z,99.90
2023-02-13T09:27:11.321Z,99.90
2023-02-13T09:31:24.153Z,99.90
2023-02-13T09:35:26.012Z,99.90
2023-02-13T09:39:27.749Z,99.90
2023-02-13T09:43:33.862Z,99.90
2023-02-13T09:47:39.183Z,99.90
2023-02-13T09:51:44.054Z,99.90
2023-02-13T09:55:58.717Z,99.90
2023-02-13T10:00:17.381Z,99.90
2023-02-13T10:04:40.208Z,99.90
2023-02-13T10:09:16.585Z,99.90
2023-02-13T10:13:55.911Z,99.90
2023-02-13T10:18:06.283Z,99.90
2023-02-13T10:22:16.714Z,99.90
2023-02-13T10:26:27.117Z,99.90
2023-02-13T10:30:35.179Z,99.90
2023-02-13T10:34:46.636Z,99.90
2023-02-13T10:39:00.919Z,99.90
2023-02-13T10:43:09.998Z,99.90
2023-02-13T10:47:23.518Z,99.90
2023-02-13T10:51:51.390Z,99.90
2023-02-13T10:56:19.220Z,99.90
2023-02-13T11:00:46.407Z,99.90
2023-02-13T11:04:49.313Z,99.90
2023-02-13T11:08:51.180Z,99.90
2023-02-13T11:12:53.739Z,99.90
2023-02-13T11:16:58.468Z,99.90
2023-02-13T11:21:14.310Z,99.90
2023-02-13T11:25:23.118Z,99.90
2023-02-13T11:29:31.815Z,99.90
2023-02-13T11:33:33.509Z,99.90
2023-02-13T11:37:35.238Z,99.90
2023-02-13T11:41:41.753Z,99.90
2023-02-13T11:45:43.562Z,99.90
2023-02-13T11:49:47.495Z,99.90
2023-02-13T11:53:49.267Z,99.90
2023-02-13T11:57:59.923Z,99.90
2023-02-13T12:02:09.637Z,99.90
2023-02-13T12:06:15.788Z,99.90
2023-02-13T12:10:31.400Z,99.90
2023-02-13T12:14:39.565Z,99.90
2023-02-13T12:18:46.354Z,99.90
2023-02-13T12:22:58.915Z,99.90
2023-02-13T12:27:12.368Z,99.90
2023-02-13T12:31:33.503Z,99.90
2023-02-13T12:35:46.383Z,99.90
2023-02-13T12:39:59.057Z,99.90
2023-02-13T12:44:19.486Z,99.90
2023-02-13T12:48:42.994Z,99.90
2023-02-13T12:53:10.083Z,99.90
2023-02-13T12:57:39.182Z,99.90
2023-02-13T13:01:49.688Z,99.90
2023-02-13T13:06:12.238Z,99.90
2023-02-13T13:10:29.213Z,99.90
2023-02-13T13:15:01.235Z,99.90
2023-02-13T13:19:31.870Z,99.90
2023-02-13T13:24:00.950Z,99.90
2023-02-13T13:28:11.877Z,99.90
2023-02-13T13:32:18.889Z,99.90
2023-02-13T13:36:45.335Z,99.90
2023-02-13T13:41:10.816Z,99.90
2023-02-13T13:45:31.031Z,99.90
2023-02-13T13:49:53.947Z,99.90
2023-02-13T13:54:04.834Z,96.60
2023-02-13T13:58:23.503Z,93.40
2023-02-13T14:02:25.136Z,88.30
2023-02-13T14:06:49.602Z,86.80
2023-02-13T14:11:02.495Z,86.20
2023-02-13T14:15:04.574Z,84.50
2023-02-13T14:19:23.132Z,83.70
2023-02-13T14:23:30.802Z,86.50
2023-02-13T14:27:38.958Z,83.80
2023-02-13T14:31:43.710Z,84.90
2023-02-13T14:35:45.525Z,85.20
2023-02-13T14:40:17.459Z,85.00
2023-02-13T14:44:55.821Z,85.10
2023-02-13T14:49:17.006Z,89.40
2023-02-13T14:53:26.296Z,91.60
2023-02-13T14:57:46.832Z,94.50
2023-02-13T15:01:53.535Z,96.20
2023-02-13T15:06:01.007Z,98.60
2023-02-13T15:10:24.772Z,99.90
2023-02-13T15:14:36.587Z,99.90
2023-02-13T15:18:52.446Z,99.90
2023-02-13T15:22:54.841Z,99.90
2023-02-13T15:27:02.672Z,99.90
2023-02-13T15:31:07.275Z,99.90
2023-02-13T15:35:32.724Z,99.90
2023-02-13T15:39:34.732Z,99.90
2023-02-13T15:43:43.624Z,99.90
2023-02-13T15:47:46.906Z,99.90
2023-02-13T15:51:50.209Z,99.90
2023-02-13T15:56:04.363Z,99.90
2023-02-13T16:00:07.631Z,99.90
2023-02-13T16:04:10.742Z,99.90
2023-02-13T16:08:31.999Z,99.90
2023-02-13T16:12:33.731Z,99.90
2023-02-13T16:16:50.480Z,99.90
2023-02-13T16:20:56.446Z,99.90
2023-02-13T16:25:30.063Z,99.90
2023-02-13T16:29:31.898Z,99.90
2023-02-13T16:33:36.025Z,99.90
2023-02-13T16:37:50.697Z,99.90
2023-02-13T16:41:53.124Z,99.90
2023-02-13T16:45:55.021Z,99.90
2023-02-13T16:49:57.335Z,99.90
2023-02-13T16:54:23.962Z,99.90
2023-02-13T16:58:27.326Z,99.90
2023-02-13T17:02:30.162Z,99.90
2023-02-13T17:06:31.871Z,99.90
2023-02-13T17:10:39.080Z,99.90
2023-02-13T17:14:41.544Z,99.90
2023-02-13T17:18:43.229Z,99.90
2023-02-13T17:22:50.462Z,99.90
2023-02-13T17:26:52.068Z,99.90
2023-02-13T17:30:57.050Z,99.90
2023-02-13T17:34:59.020Z,99.90
2023-02-13T17:39:00.709Z,99.90
2023-02-13T17:43:03.184Z,99.90
2023-02-13T17:47:04.889Z,99.90
2023-02-13T17:51:06.606Z,99.90
2023-02-13T17:55:20.976Z,99.90
2023-02-13T17:59:25.422Z,99.90
2023-02-13T18:03:27.321Z,99.90
2023-02-13T18:07:29.065Z,99.90
2023-02-13T18:11:31.111Z,99.90
2023-02-13T18:15:40.961Z,99.90
2023-02-13T18:19:42.758Z,99.90
2023-02-13T18:23:44.519Z,99.90
2023-02-13T18:27:46.797Z,99.90
2023-02-13T18:31:48.618Z,99.90
2023-02-13T18:35:50.429Z,99.90
2023-02-13T18:39:52.107Z,99.90
2023-02-13T18:43:57.427Z,99.90
2023-02-13T18:47:59.173Z,99.90
2023-02-13T18:52:02.191Z,99.90
2023-02-13T18:56:06.150Z,99.90
2023-02-13T19:00:08.337Z,99.90
2023-02-13T19:04:11.097Z,99.90
2023-02-13T19:08:12.789Z,99.90
2023-02-13T19:12:14.528Z,99.90
2023-02-13T19:16:18.469Z,99.90
2023-02-13T19:20:20.539Z,99.90
2023-02-13T19:24:22.273Z,99.90
2023-02-13T19:28:24.012Z,99.90
2023-02-13T19:32:25.727Z,99.90
2023-02-13T19:36:29.005Z,99.90
2023-02-13T19:40:30.723Z,99.90
2023-02-13T19:44:32.358Z,99.90
2023-02-13T19:48:34.386Z,99.90
2023-02-13T19:52:36.057Z,99.90
2023-02-13T19:56:39.578Z,99.90
2023-02-13T20:00:41.583Z,99.90
2023-02-13T20:04:43.872Z,99.90
2023-02-13T20:08:46.601Z,99.90
2023-02-13T20:12:53.598Z,99.90
2023-02-13T20:16:55.363Z,99.90
2023-02-13T20:20:57.599Z,99.90
2023-02-13T20:24:59.494Z,99.90
2023-02-13T20:29:02.007Z,99.90
2023-02-13T20:33:03.764Z,99.90
2023-02-13T20:37:05.659Z,99.90
2023-02-13T20:41:19.321Z,99.90
2023-02-13T20:45:21.155Z,99.90
2023-02-13T20:49:23.347Z,99.90
2023-02-13T20:53:25.371Z,99.90
2023-02-13T20:57:27.798Z,99.90
2023-02-13T21:01:37.138Z,99.90
2023-02-13T21:05:40.159Z,99.90
2023-02-13T21:09:42.012Z,99.90
2023-02-13T21:13:44.051Z,99.90
2023-02-13T21:17:45.719Z,99.90
2023-02-13T21:21:47.835Z,99.90
2023-02-13T21:25:49.888Z,99.90
2023-02-13T21:29:51.663Z,99.90
2023-02-13T21:33:53.944Z,99.90
2023-02-13T21:37:55.649Z,99.90
2023-02-13T21:41:57.588Z,99.90
2023-02-13T21:46:10.521Z,99.90
2023-02-13T21:50:12.594Z,99.90
2023-02-13T21:54:14.506Z,99.90
2023-02-13T21:58:16.175Z,99.90
2023-02-13T22:02:18.152Z,99.90
2023-02-13T22:06:21.107Z,99.90
2023-02-13T22:10:22.793Z,99.90
2023-02-13T22:14:24.612Z,99.90
2023-02-13T22:18:26.506Z,99.90
2023-02-13T22:22:28.157Z,99.90
2023-02-13T22:26:36.025Z,99.90
2023-02-13T22:30:37.776Z,99.90
2023-02-13T22:34:39.564Z,99.90
2023-02-13T22:38:42.184Z,99.90
2023-02-13T22:42:43.878Z,99.90
2023-02-13T22:46:45.560Z,99.90
2023-02-13T22:50:47.262Z,99.90
2023-02-13T22:54:48.978Z,99.90
2023-02-13T22:58:50.989Z,99.90
2023-02-13T23:02:52.979Z,99.90
2023-02-13T23:06:54.651Z,99.90
2023-02-13T23:11:15.301Z,99.90
2023-02-13T23:15:17.055Z,99.90
2023-02-13T23:19:19.482Z,99.90
2023-02-13T23:23:22.204Z,99.90
2023-02-13T23:27:23.865Z,99.90
2023-02-13T23:31:25.593Z,99.90
2023-02-13T23:35:27.910Z,99.90
2023-02-13T23:39:29.618Z,99.90
2023-02-13T23:43:31.293Z,99.90
2023-02-13T23:47:32.976Z,99.90
2023-02-13T23:51:34.828Z,99.90
2023-02-13T23:55:36.511Z,99.90
2023-02-13T23:59:38.586Z,99.90
